Time;durP1;ratioP1;P1;durP2;ratioP2;P2;SDS_P1;SDS_P2;PMS_P1;PMS_P2;Temp;Humidity;BMP_temperature;BMP_pressure;BME280_temperature;BME280_humidity;BME280_pressure;Samples;Min_cycle;Max_cycle;Signal;HPM_P1;HPM_P2
2021/10/10 00:01:54;;;;;;;9.40;4.53;;;13.70;40.80;;;;;;5032420;28;20366;-78
2021/10/10 00:04:19;;;;;;;8.13;4.70;;;13.60;40.80;;;;;;5033771;28;20401;-78
2021/10/10 00:06:45;;;;;;;14.52;4.70;;;13.70;41.10;;;;;;5033411;28;20030;-77
2021/10/10 00:09:11;;;;;;;10.68;4.35;;;13.70;41.10;;;;;;5033827;28;20151;-78
2021/10/10 00:11:37;;;;;;;9.65;4.68;;;13.60;41.10;;;;;;5033383;28;20041;-77
2021/10/10 00:14:02;;;;;;;11.85;4.95;;;13.70;41.20;;;;;;5033528;28;20367;-78
2021/10/10 00:16:28;;;;;;;16.60;4.60;;;13.60;41.20;;;;;;5033352;28;20116;-77
2021/10/10 00:18:54;;;;;;;8.80;4.53;;;13.70;40.90;;;;;;5033306;28;20045;-78
2021/10/10 00:21:20;;;;;;;14.38;4.32;;;13.60;40.60;;;;;;5033002;28;20022;-75
2021/10/10 00:23:45;;;;;;;11.25;4.60;;;13.70;40.40;;;;;;5032984;28;20029;-78
2021/10/10 00:26:11;;;;;;;8.25;4.40;;;13.60;40.10;;;;;;5033381;28;20028;-76
2021/10/10 00:28:37;;;;;;;13.35;4.72;;;13.70;40.80;;;;;;5033164;28;20509;-78
2021/10/10 00:31:02;;;;;;;7.57;4.53;;;13.70;41.00;;;;;;5033141;28;20508;-79
2021/10/10 00:33:28;;;;;;;14.80;4.55;;;13.70;40.60;;;;;;5033100;28;20088;-79
2021/10/10 00:35:54;;;;;;;14.02;4.85;;;13.70;40.60;;;;;;5033272;28;20037;-75
2021/10/10 00:38:20;;;;;;;8.15;4.80;;;13.70;41.00;;;;;;5033427;28;20025;-79
2021/10/10 00:40:46;;;;;;;14.35;4.22;;;13.70;40.70;;;;;;5033219;28;20026;-78
2021/10/10 00:43:12;;;;;;;19.23;4.53;;;13.80;40.70;;;;;;5033541;28;20100;-78
2021/10/10 00:45:37;;;;;;;11.63;4.40;;;13.80;40.90;;;;;;5032946;28;20104;-78
2021/10/10 00:48:04;;;;;;;13.27;4.47;;;13.80;40.40;;;;;;5033091;28;20029;-78
2021/10/10 00:50:31;;;;;;;11.80;4.40;;;13.80;40.60;;;;;;5032803;28;20484;-77
2021/10/10 00:52:58;;;;;;;12.57;4.60;;;13.80;41.10;;;;;;5033056;28;20022;-78
2021/10/10 00:55:26;;;;;;;9.07;4.35;;;13.80;41.30;;;;;;5032762;28;20025;-78
2021/10/10 00:57:53;;;;;;;12.38;4.70;;;13.80;41.50;;;;;;5032107;28;20147;-78
2021/10/10 01:00:20;;;;;;;10.43;4.55;;;13.80;41.50;;;;;;5030076;28;20108;-74
2021/10/10 01:02:47;;;;;;;9.55;4.50;;;13.80;41.50;;;;;;5030366;28;20032;-77
2021/10/10 01:05:14;;;;;;;9.73;3.80;;;13.80;40.40;;;;;;5031392;28;20506;-77
2021/10/10 01:07:40;;;;;;;12.00;4.35;;;13.80;41.10;;;;;;5032324;28;20029;-78
2021/10/10 01:10:08;;;;;;;11.57;4.03;;;13.80;41.30;;;;;;5032396;28;20038;-76
2021/10/10 01:12:34;;;;;;;19.92;4.55;;;13.80;41.60;;;;;;5032573;28;20017;-77
2021/10/10 01:15:02;;;;;;;8.13;4.90;;;13.80;40.40;;;;;;5032625;28;20029;-78
2021/10/10 01:17:28;;;;;;;10.48;4.22;;;13.80;40.50;;;;;;5032361;28;20022;-77
2021/10/10 01:19:54;;;;;;;8.88;4.18;;;13.80;40.80;;;;;;5032641;28;20028;-78
2021/10/10 01:22:21;;;;;;;8.77;4.18;;;13.80;41.30;;;;;;5032832;28;20151;-79
2021/10/10 01:24:47;;;;;;;10.68;4.57;;;13.80;41.20;;;;;;5032934;28;20022;-78
2021/10/10 01:27:13;;;;;;;7.88;4.20;;;13.80;41.10;;;;;;5032735;28;20092;-78
2021/10/10 01:29:39;;;;;;;9.25;3.80;;;13.80;40.80;;;;;;5032033;28;20463;-78
2021/10/10 01:32:05;;;;;;;12.63;4.10;;;13.70;40.70;;;;;;5032024;28;20120;-78
2021/10/10 01:34:31;;;;;;;10.25;4.47;;;13.70;40.90;;;;;;5033890;28;20025;-77
2021/10/10 01:36:57;;;;;;;11.40;4.45;;;13.80;41.40;;;;;;5036095;28;20029;-78
2021/10/10 01:39:23;;;;;;;8.50;4.18;;;13.80;40.80;;;;;;5036091;28;20025;-78
2021/10/10 01:41:49;;;;;;;7.05;4.03;;;13.80;39.90;;;;;;5036190;28;20029;-76
2021/10/10 01:44:16;;;;;;;9.25;4.22;;;13.80;40.10;;;;;;5036211;28;20025;-78
2021/10/10 01:46:43;;;;;;;12.50;4.03;;;13.70;40.50;;;;;;5036354;28;20025;-76
2021/10/10 01:49:11;;;;;;;9.38;3.95;;;13.80;40.80;;;;;;5036056;28;20032;-78
2021/10/10 01:51:37;;;;;;;8.50;4.25;;;13.70;40.80;;;;;;5035925;28;20038;-78
2021/10/10 01:54:04;;;;;;;14.07;4.90;;;13.80;40.10;;;;;;5036357;28;20025;-78
2021/10/10 01:56:30;;;;;;;7.20;4.35;;;13.80;40.20;;;;;;5036193;28;20021;-78
2021/10/10 01:58:56;;;;;;;11.55;4.25;;;13.80;40.30;;;;;;5035893;28;20378;-77
2021/10/10 02:01:22;;;;;;;12.15;3.95;;;13.80;40.00;;;;;;5036220;28;20010;-78
2021/10/10 02:03:47;;;;;;;11.38;4.53;;;13.80;40.00;;;;;;5035808;28;20385;-78
2021/10/10 02:06:13;;;;;;;7.85;4.47;;;13.80;39.80;;;;;;5036203;28;20025;-77
2021/10/10 02:08:39;;;;;;;7.82;4.53;;;13.80;40.10;;;;;;5035906;28;20022;-75
2021/10/10 02:11:04;;;;;;;13.60;4.22;;;13.70;40.40;;;;;;5035697;28;20037;-78
2021/10/10 02:13:30;;;;;;;10.43;4.35;;;13.70;40.90;;;;;;5035869;28;20075;-77
2021/10/10 02:15:57;;;;;;;7.93;4.05;;;13.70;40.90;;;;;;5034356;28;20474;-77
2021/10/10 02:18:23;;;;;;;9.02;4.82;;;13.70;40.90;;;;;;5035442;28;20032;-78
2021/10/10 02:20:49;;;;;;;10.98;4.57;;;13.70;40.40;;;;;;5035580;28;20028;-77
2021/10/10 02:23:15;;;;;;;9.52;3.90;;;13.70;40.70;;;;;;5035526;28;20112;-77
2021/10/10 02:25:40;;;;;;;13.15;4.35;;;13.60;41.10;;;;;;5035494;28;20029;-79
2021/10/10 02:28:06;;;;;;;10.68;4.10;;;13.60;41.30;;;;;;5035697;28;20056;-75
2021/10/10 02:30:32;;;;;;;13.13;5.10;;;13.70;40.80;;;;;;5035701;28;20156;-78
2021/10/10 02:32:57;;;;;;;21.23;4.93;;;13.60;40.50;;;;;;5034950;28;20473;-77
2021/10/10 02:35:23;;;;;;;7.55;4.40;;;13.60;40.30;;;;;;5034952;28;20394;-78
2021/10/10 02:37:49;;;;;;;9.32;4.35;;;13.60;40.40;;;;;;5035583;28;20025;-78
2021/10/10 02:40:15;;;;;;;8.05;4.40;;;13.60;40.40;;;;;;5034994;28;20228;-78
2021/10/10 02:42:41;;;;;;;11.43;4.38;;;13.60;40.50;;;;;;5035395;28;20030;-78
2021/10/10 02:45:08;;;;;;;18.08;4.53;;;13.60;40.80;;;;;;5034817;28;20429;-78
2021/10/10 02:47:33;;;;;;;10.73;4.57;;;13.60;40.90;;;;;;5035262;28;20478;-76
2021/10/10 02:49:59;;;;;;;14.30;4.75;;;13.50;41.40;;;;;;5035026;28;20076;-77
2021/10/10 02:52:25;;;;;;;8.20;4.10;;;13.60;40.80;;;;;;5033727;28;20053;-77
2021/10/10 02:54:51;;;;;;;17.88;5.05;;;13.60;40.40;;;;;;5035070;28;20032;-76
2021/10/10 02:57:18;;;;;;;11.55;4.68;;;13.60;40.40;;;;;;5035140;28;20021;-78
2021/10/10 02:59:45;;;;;;;16.80;4.30;;;13.60;40.30;;;;;;5035309;28;20028;-78
2021/10/10 03:02:11;;;;;;;12.05;5.03;;;13.60;40.60;;;;;;5035019;28;20104;-77
2021/10/10 03:04:36;;;;;;;16.67;4.22;;;13.60;40.40;;;;;;5035032;28;20100;-76
2021/10/10 03:07:02;;;;;;;14.68;4.60;;;13.60;40.90;;;;;;5034526;28;20029;-76
2021/10/10 03:09:28;;;;;;;12.52;4.82;;;13.60;40.70;;;;;;5034026;28;20025;-77
2021/10/10 03:11:54;;;;;;;7.65;4.28;;;13.60;40.70;;;;;;5034350;28;20044;-78
2021/10/10 03:14:19;;;;;;;13.50;4.95;;;13.60;40.90;;;;;;5034721;28;20071;-76
2021/10/10 03:16:45;;;;;;;9.88;4.25;;;13.60;40.60;;;;;;5034723;28;20493;-76
2021/10/10 03:19:11;;;;;;;8.10;4.05;;;13.60;40.80;;;;;;5034599;28;20025;-79
2021/10/10 03:21:37;;;;;;;9.85;3.95;;;13.60;41.20;;;;;;5034593;28;20576;-78
2021/10/10 03:24:03;;;;;;;17.88;4.53;;;13.60;41.40;;;;;;5032960;28;20036;-75
2021/10/10 03:26:28;;;;;;;15.25;4.80;;;13.50;40.70;;;;;;5034452;28;20021;-78
2021/10/10 03:28:54;;;;;;;13.23;4.63;;;13.50;41.10;;;;;;5034304;28;20473;-77
2021/10/10 03:31:20;;;;;;;16.42;4.65;;;13.60;41.30;;;;;;5034267;28;20041;-79
2021/10/10 03:33:46;;;;;;;13.30;4.57;;;13.50;41.00;;;;;;5034330;28;20026;-78
2021/10/10 03:36:12;;;;;;;12.57;4.32;;;13.50;40.90;;;;;;5034551;28;20197;-76
2021/10/10 03:38:38;;;;;;;14.20;4.90;;;13.50;41.30;;;;;;5034315;28;20026;-77
2021/10/10 03:41:04;;;;;;;13.13;5.07;;;13.50;41.30;;;;;;5034164;28;20076;-78
2021/10/10 03:43:30;;;;;;;11.30;4.22;;;13.50;41.50;;;;;;5034440;28;20083;-77
2021/10/10 03:45:56;;;;;;;9.13;4.57;;;13.50;41.40;;;;;;5034200;28;20105;-76
2021/10/10 03:48:23;;;;;;;15.77;4.38;;;13.50;41.50;;;;;;5034138;28;20452;-78
2021/10/10 03:50:49;;;;;;;15.45;4.43;;;13.50;41.70;;;;;;5034114;28;20040;-78
2021/10/10 03:53:15;;;;;;;14.50;4.38;;;13.50;41.80;;;;;;5034135;28;20041;-78
2021/10/10 03:55:41;;;;;;;9.68;4.63;;;13.50;41.70;;;;;;5034114;28;20029;-78
2021/10/10 03:58:08;;;;;;;12.02;4.90;;;13.50;41.70;;;;;;5032970;28;20436;-78
2021/10/10 04:00:35;;;;;;;10.35;4.38;;;13.50;42.00;;;;;;5034228;28;20037;-77
2021/10/10 04:03:04;;;;;;;8.35;4.53;;;13.50;42.10;;;;;;5034081;28;20109;-78
2021/10/10 04:07:59;;;;;;;11.98;4.70;;;13.50;41.60;;;;;;5033380;28;20398;-77
2021/10/10 04:10:25;;;;;;;20.08;4.20;;;13.50;41.70;;;;;;5033801;28;20025;-78
2021/10/10 04:12:51;;;;;;;10.50;4.18;;;13.50;41.70;;;;;;5033978;28;20390;-78
2021/10/10 04:15:17;;;;;;;14.30;4.57;;;13.50;42.30;;;;;;5033649;28;20030;-78
2021/10/10 04:17:44;;;;;;;9.75;5.00;;;13.50;42.40;;;;;;5033520;28;20557;-78
2021/10/10 04:20:12;;;;;;;14.52;4.05;;;13.50;41.10;;;;;;5033505;28;20112;-79
2021/10/10 04:22:39;;;;;;;12.32;3.97;;;13.50;41.30;;;;;;5033441;28;20025;-78
2021/10/10 04:25:05;;;;;;;12.52;5.00;;;13.50;41.10;;;;;;5033603;28;20107;-77
2021/10/10 04:27:35;;;;;;;15.30;4.57;;;13.50;41.40;;;;;;5033350;28;20026;-79
2021/10/10 04:30:03;;;;;;;14.02;5.18;;;13.50;41.30;;;;;;5033234;28;20452;-79
2021/10/10 04:32:28;;;;;;;10.18;4.20;;;13.50;41.50;;;;;;5033859;28;20383;-78
2021/10/10 04:34:54;;;;;;;11.63;4.80;;;13.50;41.90;;;;;;5033454;28;20029;-77
2021/10/10 04:37:20;;;;;;;10.80;4.25;;;13.50;42.50;;;;;;5033135;28;20037;-77
2021/10/10 04:39:45;;;;;;;14.45;4.88;;;13.50;42.40;;;;;;5033361;28;20044;-77
2021/10/10 04:42:11;;;;;;;9.73;4.13;;;13.50;42.50;;;;;;5033355;28;20032;-78
2021/10/10 04:44:37;;;;;;;9.55;3.85;;;13.50;42.50;;;;;;5033545;28;20041;-78
2021/10/10 04:47:06;;;;;;;11.32;4.72;;;13.50;42.70;;;;;;5033337;28;20496;-77
2021/10/10 04:49:33;;;;;;;15.32;3.90;;;13.50;42.90;;;;;;5033158;28;20112;-78
2021/10/10 04:51:58;;;;;;;7.68;4.38;;;13.50;42.90;;;;;;5033304;28;20114;-78
2021/10/10 04:54:24;;;;;;;12.93;4.50;;;13.50;43.10;;;;;;5033104;28;20510;-77
2021/10/10 04:56:50;;;;;;;10.25;4.35;;;13.50;42.60;;;;;;5032933;28;20025;-77
2021/10/10 04:59:16;;;;;;;12.35;4.90;;;13.50;42.40;;;;;;5032783;28;20029;-77
2021/10/10 05:01:41;;;;;;;12.38;4.45;;;13.40;42.40;;;;;;5032910;28;20025;-77
2021/10/10 05:04:07;;;;;;;8.10;4.60;;;13.50;42.50;;;;;;5032730;28;20021;-76
2021/10/10 05:06:33;;;;;;;11.52;4.10;;;13.50;42.20;;;;;;5032772;28;20049;-77
2021/10/10 05:08:58;;;;;;;10.63;4.25;;;13.40;42.20;;;;;;5032801;28;20022;-76
2021/10/10 05:11:24;;;;;;;13.35;4.53;;;13.40;41.90;;;;;;5033290;28;20038;-75
2021/10/10 05:13:50;;;;;;;13.48;4.50;;;13.40;41.80;;;;;;5035798;28;20022;-78
2021/10/10 05:16:16;;;;;;;17.77;4.90;;;13.40;42.40;;;;;;5036269;28;20029;-78
2021/10/10 05:18:41;;;;;;;15.70;4.95;;;13.40;42.80;;;;;;5032688;28;20022;-77
2021/10/10 05:21:07;;;;;;;11.23;4.25;;;13.40;42.80;;;;;;5032267;28;20033;-79
2021/10/10 05:23:33;;;;;;;10.02;4.35;;;13.40;42.90;;;;;;5032499;28;20006;-76
2021/10/10 05:26:00;;;;;;;10.02;4.50;;;13.40;42.80;;;;;;5032554;28;20383;-75
2021/10/10 05:28:26;;;;;;;14.18;4.57;;;13.40;43.50;;;;;;5032786;28;20075;-76
2021/10/10 05:30:51;;;;;;;8.60;4.35;;;13.40;43.70;;;;;;5032447;28;20510;-76
2021/10/10 05:33:19;;;;;;;6.07;4.15;;;13.40;43.90;;;;;;5032557;28;20050;-75
2021/10/10 05:35:46;;;;;;;8.82;4.82;;;13.40;43.80;;;;;;5032577;28;20026;-76
2021/10/10 05:38:12;;;;;;;12.48;4.15;;;13.40;44.00;;;;;;5032609;28;20537;-75
2021/10/10 05:40:37;;;;;;;15.15;4.70;;;13.40;43.60;;;;;;5032585;28;20116;-76
2021/10/10 05:43:04;;;;;;;9.93;4.50;;;13.40;43.20;;;;;;5032414;28;20536;-75
2021/10/10 05:45:30;;;;;;;8.13;4.30;;;13.30;43.00;;;;;;5032458;28;20026;-75
2021/10/10 05:47:55;;;;;;;17.50;5.53;;;13.30;43.60;;;;;;5032558;28;20029;-76
2021/10/10 05:50:21;;;;;;;13.02;4.80;;;13.30;43.60;;;;;;5032107;28;20036;-76
2021/10/10 05:52:47;;;;;;;10.05;4.50;;;13.40;43.50;;;;;;5032197;28;20084;-76
2021/10/10 05:55:15;;;;;;;15.77;4.70;;;13.30;43.40;;;;;;5032490;28;20021;-76
2021/10/10 05:57:49;;;;;;;12.85;4.57;;;13.40;43.50;;;;;;5031908;28;20371;-75
2021/10/10 06:00:16;;;;;;;13.30;5.10;;;13.40;43.80;;;;;;5031589;28;20104;-76
2021/10/10 06:02:43;;;;;;;10.15;4.50;;;13.40;43.30;;;;;;5031856;28;20104;-75
2021/10/10 06:05:13;;;;;;;11.15;4.65;;;13.40;43.30;;;;;;5030978;28;20121;-76
2021/10/10 06:07:38;;;;;;;14.73;4.72;;;13.40;43.70;;;;;;5031416;28;20057;-77
2021/10/10 06:10:06;;;;;;;14.68;5.35;;;13.40;44.00;;;;;;5030198;28;20508;-74
2021/10/10 06:12:33;;;;;;;12.20;4.63;;;13.40;44.60;;;;;;5029483;28;20037;-74
2021/10/10 06:14:59;;;;;;;21.38;4.97;;;13.40;45.30;;;;;;5028971;28;20025;-74
2021/10/10 06:17:25;;;;;;;13.38;5.40;;;13.40;46.60;;;;;;5029312;28;20395;-75
2021/10/10 06:19:51;;;;;;;8.55;5.20;;;13.40;47.20;;;;;;5029859;28;20037;-75
2021/10/10 06:22:17;;;;;;;10.95;4.95;;;13.40;47.40;;;;;;5035731;28;20056;-75
2021/10/10 06:24:43;;;;;;;17.60;5.07;;;13.40;48.00;;;;;;5035400;28;20025;-76
2021/10/10 06:27:09;;;;;;;11.68;6.25;;;13.40;47.20;;;;;;5034747;28;20033;-76
2021/10/10 06:29:34;;;;;;;11.77;4.90;;;13.40;47.30;;;;;;5032504;28;20034;-76
2021/10/10 06:32:00;;;;;;;15.98;5.07;;;13.50;47.60;;;;;;5034413;28;20506;-75
2021/10/10 06:34:26;;;;;;;20.45;5.10;;;13.50;47.80;;;;;;5035275;28;20022;-75
2021/10/10 06:36:52;;;;;;;10.73;4.78;;;13.50;46.90;;;;;;5035396;28;20100;-74
2021/10/10 06:39:17;;;;;;;10.77;4.47;;;13.50;46.40;;;;;;5035094;28;20478;-75
2021/10/10 06:41:49;;;;;;;12.32;4.80;;;13.50;45.30;;;;;;5033955;28;20500;-74
2021/10/10 06:44:16;;;;;;;11.65;4.68;;;13.50;44.60;;;;;;5034326;28;20017;-74
2021/10/10 06:46:41;;;;;;;9.55;4.78;;;13.50;45.20;;;;;;5035382;28;20037;-74
2021/10/10 06:49:07;;;;;;;14.68;4.80;;;13.50;44.90;;;;;;5035440;28;20028;-75
2021/10/10 06:51:33;;;;;;;13.80;4.93;;;13.60;44.90;;;;;;5035270;28;20037;-73
2021/10/10 06:53:58;;;;;;;8.20;4.32;;;13.60;44.80;;;;;;5035363;28;20033;-75
2021/10/10 06:56:24;;;;;;;10.93;4.32;;;13.60;44.30;;;;;;5035248;28;20422;-72
2021/10/10 06:58:50;;;;;;;13.27;5.20;;;13.70;44.30;;;;;;5035123;28;20492;-76
2021/10/10 07:01:16;;;;;;;8.50;4.32;;;13.70;44.20;;;;;;5035399;28;20086;-75
2021/10/10 07:03:42;;;;;;;12.52;5.15;;;13.80;44.20;;;;;;5035111;28;20037;-76
2021/10/10 07:06:09;;;;;;;12.10;4.50;;;13.80;44.00;;;;;;5035520;28;20017;-74
2021/10/10 07:08:35;;;;;;;9.80;4.47;;;13.80;44.10;;;;;;5035352;28;20025;-73
2021/10/10 07:11:00;;;;;;;10.57;4.22;;;13.80;44.10;;;;;;5034986;28;20539;-73
2021/10/10 07:13:26;;;;;;;13.90;5.07;;;13.80;44.00;;;;;;5035022;28;20021;-75
2021/10/10 07:15:54;;;;;;;14.05;4.68;;;13.80;44.30;;;;;;5035208;28;20367;-74
2021/10/10 07:19:06;;;;;;;11.60;4.28;;;13.80;45.00;;;;;;5035110;28;20024;-75
2021/10/10 07:26:24;;;;;;;16.02;4.70;;;13.80;44.40;;;;;;5034935;28;20029;-75
2021/10/10 07:28:51;;;;;;;8.63;4.05;;;13.80;44.40;;;;;;5032719;28;20239;-75
2021/10/10 07:31:17;;;;;;;10.60;4.10;;;13.80;44.80;;;;;;5031771;28;20064;-75
2021/10/10 07:33:43;;;;;;;9.60;4.20;;;13.80;45.50;;;;;;5031436;28;20025;-73
2021/10/10 07:36:10;;;;;;;16.42;4.50;;;13.80;46.10;;;;;;5034524;28;20029;-75
2021/10/10 07:38:36;;;;;;;12.93;4.70;;;13.90;46.60;;;;;;5034504;28;20196;-75
2021/10/10 07:41:04;;;;;;;10.15;4.60;;;13.90;46.20;;;;;;5034724;28;20108;-76
2021/10/10 07:43:31;;;;;;;12.55;4.88;;;13.90;46.10;;;;;;5034576;28;20029;-75
2021/10/10 07:46:05;;;;;;;9.15;4.57;;;13.90;46.40;;;;;;5034666;28;20029;-74
2021/10/10 07:48:33;;;;;;;12.85;4.45;;;13.90;46.70;;;;;;5034519;28;20105;-76
2021/10/10 07:50:58;;;;;;;18.48;4.78;;;13.90;46.50;;;;;;5034265;28;20033;-75
2021/10/10 07:53:24;;;;;;;10.82;4.65;;;14.00;46.60;;;;;;5032474;28;20083;-76
2021/10/10 07:55:50;;;;;;;14.38;5.32;;;14.10;46.60;;;;;;5031756;28;20478;-76
2021/10/10 07:58:15;;;;;;;15.38;4.40;;;14.10;46.50;;;;;;5031309;28;20026;-77
2021/10/10 08:00:41;;;;;;;17.30;5.30;;;14.20;45.20;;;;;;5033434;28;20053;-75
2021/10/10 08:03:07;;;;;;;10.60;4.72;;;14.20;45.00;;;;;;5034113;28;20025;-76
2021/10/10 08:05:43;;;;;;;7.68;4.25;;;14.20;44.90;;;;;;5034024;28;20031;-75
2021/10/10 08:08:10;;;;;;;9.20;4.10;;;14.20;44.70;;;;;;5032528;28;20458;-77
2021/10/10 08:10:36;;;;;;;14.90;4.10;;;14.20;44.80;;;;;;5033798;28;20053;-75
2021/10/10 08:13:02;;;;;;;9.90;4.20;;;14.20;45.60;;;;;;5033982;28;20355;-76
2021/10/10 08:15:28;;;;;;;8.60;4.75;;;14.20;45.80;;;;;;5033183;28;20084;-76
2021/10/10 08:17:54;;;;;;;11.93;3.90;;;14.20;45.80;;;;;;5033873;28;20025;-76
2021/10/10 08:20:19;;;;;;;8.10;4.20;;;14.20;44.40;;;;;;5033942;28;20021;-76
2021/10/10 08:22:47;;;;;;;10.75;3.85;;;14.20;44.30;;;;;;5033499;28;20024;-76
2021/10/10 08:25:13;;;;;;;10.70;4.15;;;14.20;44.50;;;;;;5033722;28;20561;-75
2021/10/10 08:27:41;;;;;;;10.43;4.03;;;14.20;44.10;;;;;;5033361;28;20042;-76
2021/10/10 08:30:09;;;;;;;13.07;4.07;;;14.20;43.90;;;;;;5033170;28;20026;-76
2021/10/10 08:32:36;;;;;;;10.40;4.68;;;14.20;44.70;;;;;;5033678;28;20029;-75
2021/10/10 08:35:02;;;;;;;11.18;4.80;;;14.20;45.70;;;;;;5033502;28;20025;-77
2021/10/10 08:37:28;;;;;;;17.02;4.50;;;14.20;46.70;;;;;;5033556;28;20031;-74
2021/10/10 08:39:54;;;;;;;10.25;4.40;;;14.20;46.90;;;;;;5033390;28;20022;-76
2021/10/10 08:42:28;;;;;;;12.85;5.40;;;14.20;45.80;;;;;;5033563;28;20396;-75
2021/10/10 08:45:04;;;;;;;9.20;3.90;;;14.20;45.40;;;;;;5033038;28;20116;-77
2021/10/10 08:47:31;;;;;;;13.40;4.30;;;14.30;46.40;;;;;;5033066;28;20025;-76
2021/10/10 08:49:57;;;;;;;9.70;4.18;;;14.40;44.80;;;;;;5033132;28;20072;-76
2021/10/10 08:52:23;;;;;;;10.52;4.95;;;14.50;43.40;;;;;;5033209;28;20029;-78
2021/10/10 08:54:50;;;;;;;14.05;4.18;;;14.60;43.00;;;;;;5032917;28;20048;-76
2021/10/10 08:57:16;;;;;;;15.73;4.25;;;14.70;43.40;;;;;;5031881;28;20067;-76
2021/10/10 08:59:46;;;;;;;12.18;4.78;;;14.80;43.10;;;;;;5033015;28;20022;-76
2021/10/10 09:02:25;;;;;;;8.20;4.65;;;14.80;43.30;;;;;;5033194;28;20030;-76
2021/10/10 09:04:51;;;;;;;14.75;4.60;;;14.80;42.60;;;;;;5033447;28;20075;-75
2021/10/10 09:07:17;;;;;;;10.30;4.15;;;14.80;42.60;;;;;;5033036;28;20083;-74
2021/10/10 09:09:43;;;;;;;9.38;4.18;;;14.80;42.90;;;;;;5032609;28;20061;-76
2021/10/10 09:12:13;;;;;;;14.25;3.88;;;14.80;43.10;;;;;;5032631;28;20079;-75
2021/10/10 09:14:51;;;;;;;10.25;3.83;;;14.70;43.10;;;;;;5033036;28;20032;-76
2021/10/10 09:17:18;;;;;;;8.80;3.97;;;14.70;42.90;;;;;;5032797;28;20359;-77
2021/10/10 09:20:11;;;;;;;15.98;4.57;;;14.70;42.90;;;;;;5032929;28;20450;-76
2021/10/10 09:22:37;;;;;;;7.63;4.10;;;14.70;43.50;;;;;;5032382;28;20034;-75
2021/10/10 09:25:11;;;;;;;15.38;4.53;;;14.60;44.00;;;;;;5032802;28;20033;-76
2021/10/10 09:27:36;;;;;;;7.03;3.63;;;14.60;43.80;;;;;;5033013;28;20386;-76
2021/10/10 09:30:04;;;;;;;7.75;3.80;;;14.70;43.20;;;;;;5032365;28;20025;-73
2021/10/10 09:32:31;;;;;;;12.20;3.85;;;14.80;43.60;;;;;;5032801;28;20116;-76
2021/10/10 09:34:57;;;;;;;8.90;4.28;;;14.80;43.80;;;;;;5032791;28;20449;-76
2021/10/10 09:37:40;;;;;;;5.47;3.38;;;14.80;43.50;;;;;;5032852;28;20087;-76
2021/10/10 09:40:13;;;;;;;7.15;3.83;;;14.80;42.80;;;;;;5032628;28;20083;-77
2021/10/10 09:42:42;;;;;;;7.82;3.88;;;14.90;42.70;;;;;;5032981;28;20067;-76
2021/10/10 09:45:16;;;;;;;9.07;3.65;;;14.90;42.80;;;;;;5032861;28;20029;-75
2021/10/10 09:47:55;;;;;;;10.15;3.75;;;14.90;43.10;;;;;;5032695;28;20025;-76
2021/10/10 09:50:22;;;;;;;9.38;4.25;;;14.90;43.70;;;;;;5032630;28;20057;-77
2021/10/10 09:53:24;;;;;;;7.75;3.78;;;15.00;43.80;;;;;;5032738;28;20030;-74
2021/10/10 09:55:55;;;;;;;8.05;3.38;;;15.00;43.30;;;;;;5034669;28;20037;-76
2021/10/10 09:58:39;;;;;;;8.73;3.75;;;15.00;42.50;;;;;;5037086;28;20029;-74
2021/10/10 10:01:19;;;;;;;7.70;3.75;;;15.00;43.70;;;;;;5036492;28;20116;-73
2021/10/10 10:04:00;;;;;;;7.70;3.60;;;15.00;43.90;;;;;;5036473;28;20030;-76
2021/10/10 10:06:27;;;;;;;11.63;3.72;;;15.20;43.70;;;;;;5036162;28;20486;-76
2021/10/10 10:09:01;;;;;;;10.57;3.97;;;15.30;44.50;;;;;;5035997;28;20064;-76
2021/10/10 10:11:47;;;;;;;8.30;3.47;;;15.50;43.10;;;;;;5036445;28;20045;-74
2021/10/10 10:14:18;;;;;;;9.32;3.80;;;15.60;43.30;;;;;;5036137;28;20385;-75
2021/10/10 10:16:49;;;;;;;7.55;3.67;;;15.70;43.90;;;;;;5035707;28;20036;-73
2021/10/10 10:19:17;;;;;;;6.13;3.45;;;15.70;43.30;;;;;;5036141;28;20076;-75
2021/10/10 10:21:47;;;;;;;9.32;2.95;;;15.80;43.40;;;;;;5036062;28;20026;-77
2021/10/10 10:24:14;;;;;;;11.13;4.03;;;15.70;42.30;;;;;;5035780;28;20022;-74
2021/10/10 10:26:40;;;;;;;10.25;3.50;;;15.80;40.90;;;;;;5036048;28;20036;-77
2021/10/10 10:29:23;;;;;;;5.18;3.22;;;15.80;41.20;;;;;;5034472;28;20484;-76
2021/10/10 10:31:50;;;;;;;9.70;3.83;;;15.70;41.80;;;;;;5035524;28;20041;-75
2021/10/10 10:34:36;;;;;;;8.18;3.60;;;15.70;41.80;;;;;;5036153;28;20018;-76
2021/10/10 10:37:10;;;;;;;7.43;3.70;;;15.60;41.10;;;;;;5035906;28;20030;-76
2021/10/10 10:39:37;;;;;;;12.55;3.72;;;15.70;41.60;;;;;;5034393;28;20095;-69
2021/10/10 10:42:09;;;;;;;7.90;3.13;;;15.70;41.90;;;;;;5035773;28;20060;-69
2021/10/10 10:44:42;;;;;;;7.05;3.40;;;15.60;41.40;;;;;;5035693;28;20032;-69
2021/10/10 10:47:15;;;;;;;10.98;3.70;;;15.60;42.10;;;;;;5035564;28;20122;-70
2021/10/10 10:49:57;;;;;;;8.02;3.80;;;15.70;42.50;;;;;;5035541;28;20104;-77
2021/10/10 10:52:26;;;;;;;11.02;3.45;;;15.70;42.50;;;;;;5035766;28;20163;-75
2021/10/10 10:55:13;;;;;;;9.13;3.58;;;15.80;42.50;;;;;;5035470;28;20053;-77
2021/10/10 10:57:43;;;;;;;8.00;3.20;;;15.90;41.70;;;;;;5035636;28;20037;-77
2021/10/10 11:00:11;;;;;;;6.45;3.40;;;16.00;42.60;;;;;;5034929;28;20029;-76
2021/10/10 11:03:11;;;;;;;9.20;3.60;;;16.00;42.60;;;;;;5035378;28;20143;-76
2021/10/10 11:05:47;;;;;;;7.32;3.38;;;16.10;42.70;;;;;;5034907;28;20036;-74
2021/10/10 11:08:30;;;;;;;6.43;3.50;;;16.10;42.50;;;;;;5035320;28;20030;-77
2021/10/10 11:11:10;;;;;;;8.65;3.42;;;16.10;42.30;;;;;;5035121;28;20053;-71
2021/10/10 11:13:35;;;;;;;14.35;3.85;;;16.10;42.70;;;;;;5035013;28;20083;-76
2021/10/10 11:16:15;;;;;;;11.43;3.80;;;16.10;42.80;;;;;;5035291;28;20025;-77
2021/10/10 11:18:50;;;;;;;5.00;3.15;;;16.10;42.50;;;;;;5035320;28;20065;-75
2021/10/10 11:21:29;;;;;;;11.52;3.55;;;16.10;42.70;;;;;;5034950;28;20052;-76
2021/10/10 11:23:57;;;;;;;12.05;3.30;;;16.20;42.90;;;;;;5032313;28;20140;-76
2021/10/10 11:26:24;;;;;;;9.07;3.50;;;16.20;42.70;;;;;;5031912;28;20039;-77
2021/10/10 11:28:55;;;;;;;6.78;3.55;;;16.20;42.30;;;;;;5031898;28;20033;-76
2021/10/10 11:31:30;;;;;;;5.45;3.50;;;16.20;41.30;;;;;;5033540;28;20461;-72
2021/10/10 11:33:59;;;;;;;10.30;3.90;;;16.20;42.80;;;;;;5034524;28;20036;-76
2021/10/10 11:36:39;;;;;;;6.70;3.60;;;16.20;44.60;;;;;;5034293;28;20029;-75
2021/10/10 11:39:08;;;;;;;8.00;3.70;;;16.20;44.60;;;;;;5034827;28;20030;-76
2021/10/10 11:41:44;;;;;;;7.70;3.90;;;16.20;45.40;;;;;;5035075;28;20034;-75
2021/10/10 11:44:12;;;;;;;10.13;4.10;;;16.20;45.40;;;;;;5034555;28;20031;-76
2021/10/10 11:46:59;;;;;;;8.77;3.67;;;16.20;45.90;;;;;;5034090;28;20053;-75
2021/10/10 11:49:40;;;;;;;9.18;4.13;;;16.20;46.50;;;;;;5035643;28;20064;-74
2021/10/10 11:52:07;;;;;;;4.90;3.35;;;16.20;45.80;;;;;;5038409;28;20029;-76
2021/10/10 11:54:40;;;;;;;9.20;3.85;;;16.20;45.90;;;;;;5037948;28;20018;-76
2021/10/10 11:57:08;;;;;;;8.05;3.75;;;16.20;46.40;;;;;;5034177;28;20033;-76
2021/10/10 11:59:46;;;;;;;6.43;3.53;;;16.20;46.00;;;;;;5033018;28;20049;-75
2021/10/10 12:02:12;;;;;;;18.17;3.80;;;16.20;46.20;;;;;;5030918;28;20065;-75
2021/10/10 12:04:38;;;;;;;7.05;3.35;;;16.20;44.60;;;;;;5030741;28;20459;-75
2021/10/10 12:07:04;;;;;;;6.47;3.45;;;16.10;45.40;;;;;;5033602;28;20041;-76
2021/10/10 12:09:30;;;;;;;4.88;3.10;;;16.20;45.80;;;;;;5033989;28;20390;-75
2021/10/10 12:12:14;;;;;;;6.03;3.30;;;16.30;45.50;;;;;;5033964;28;20033;-75
2021/10/10 12:14:52;;;;;;;7.22;3.25;;;16.40;44.00;;;;;;5033822;28;20057;-76
2021/10/10 12:17:28;;;;;;;4.43;2.90;;;16.50;43.10;;;;;;5033665;28;20075;-75
2021/10/10 12:19:54;;;;;;;8.50;3.38;;;16.50;41.90;;;;;;5033008;28;20022;-75
2021/10/10 12:22:20;;;;;;;9.27;2.83;;;16.40;42.00;;;;;;5032877;28;20477;-75
2021/10/10 12:24:47;;;;;;;12.63;3.20;;;16.30;42.30;;;;;;5033062;28;20025;-75
2021/10/10 12:27:28;;;;;;;6.05;3.40;;;16.30;42.50;;;;;;5033190;28;20025;-74
2021/10/10 12:29:54;;;;;;;9.13;3.33;;;16.20;42.70;;;;;;5031619;28;20014;-75
2021/10/10 12:32:23;;;;;;;7.97;3.35;;;16.10;43.00;;;;;;5033013;28;20458;-75
2021/10/10 12:34:49;;;;;;;4.53;2.80;;;16.10;42.40;;;;;;5033304;28;20022;-74
2021/10/10 12:37:22;;;;;;;6.05;3.10;;;16.10;43.10;;;;;;5030066;28;20061;-76
2021/10/10 12:39:49;;;;;;;10.82;3.25;;;16.00;43.40;;;;;;5030966;28;20032;-78
2021/10/10 12:42:18;;;;;;;6.28;3.45;;;16.00;43.10;;;;;;5032111;28;20025;-76
2021/10/10 12:45:07;;;;;;;7.25;3.17;;;15.90;43.00;;;;;;5033126;28;20017;-74
2021/10/10 12:47:33;;;;;;;7.15;3.15;;;15.90;43.30;;;;;;5031996;28;20057;-76
2021/10/10 12:49:59;;;;;;;7.63;3.22;;;15.90;43.50;;;;;;5032478;28;20382;-75
2021/10/10 12:52:38;;;;;;;5.70;3.20;;;15.80;44.10;;;;;;5032994;28;20044;-75
2021/10/10 12:55:06;;;;;;;19.65;3.55;;;15.80;43.60;;;;;;5032901;28;20025;-74